Time;durP1;ratioP1;P1;durP2;ratioP2;P2;SDS_P1;SDS_P2;PMS_P1;PMS_P2;Temp;Humidity;BMP_temperature;BMP_pressure;BME280_temperature;BME280_humidity;BME280_pressure;Samples;Min_cycle;Max_cycle;Signal;HPM_P1;HPM_P2
2023/02/21 02:15:16;;;;;;;165.85;67.50;;;8.20;99.90;;;;;;5072865;28;20035;-62
2023/02/21 02:18:11;;;;;;;163.32;67.05;;;8.20;99.90;;;;;;5072878;28;20046;-62
2023/02/21 02:21:09;;;;;;;166.63;69.00;;;8.20;99.90;;;;;;5073000;28;20029;-62
2023/02/21 02:24:08;;;;;;;170.30;67.50;;;8.20;99.90;;;;;;5072819;28;20383;-62
2023/02/21 02:27:14;;;;;;;168.07;67.60;;;8.20;99.90;;;;;;5072686;28;20029;-62
2023/02/21 02:33:11;;;;;;;169.55;66.47;;;8.30;99.90;;;;;;5113515;27;1198486;-62
2023/02/21 02:35:45;;;;;;;177.05;70.95;;;8.20;99.90;;;;;;5131435;28;20515;-62
2023/02/21 02:38:35;;;;;;;175.30;69.60;;;8.20;99.90;;;;;;5130623;28;20020;-62
2023/02/21 02:41:11;;;;;;;172.75;71.10;;;8.30;99.90;;;;;;5131475;27;20485;-62
2023/02/21 02:43:48;;;;;;;176.45;70.15;;;8.30;99.90;;;;;;5131503;27;20033;-62
2023/02/21 02:49:13;;;;;;;173.95;69.40;;;8.30;99.90;;;;;;5111135;27;20380;-62
2023/02/21 02:51:39;;;;;;;163.65;70.18;;;8.30;99.90;;;;;;5111234;28;20397;-62
2023/02/21 02:54:04;;;;;;;166.98;69.68;;;8.30;99.90;;;;;;5111043;28;20085;-62
2023/02/21 02:56:32;;;;;;;174.00;68.47;;;8.30;99.90;;;;;;5111188;28;20032;-63
2023/02/21 02:59:05;;;;;;;174.77;72.53;;;8.30;99.90;;;;;;5110997;28;20030;-62
2023/02/21 03:05:06;;;;;;;175.65;69.97;;;8.30;99.90;;;;;;5070621;28;20383;-62
2023/02/21 03:07:58;;;;;;;174.40;70.13;;;8.30;99.90;;;;;;5070415;28;20055;-62
2023/02/21 03:10:39;;;;;;;178.77;72.95;;;8.30;99.90;;;;;;5070719;28;20031;-62
2023/02/21 03:13:31;;;;;;;180.32;71.80;;;8.20;99.90;;;;;;5070679;28;20040;-62
2023/02/21 03:16:19;;;;;;;186.65;71.72;;;8.20;99.90;;;;;;5070152;28;20025;-62
2023/02/21 03:18:50;;;;;;;174.70;72.10;;;8.30;99.90;;;;;;5069410;28;20032;-62
2023/02/21 03:21:21;;;;;;;184.85;72.47;;;8.20;99.90;;;;;;5070277;28;20525;-62
2023/02/21 03:23:51;;;;;;;181.32;72.40;;;8.30;99.90;;;;;;5070245;28;20402;-62
2023/02/21 03:26:18;;;;;;;189.27;75.47;;;8.20;99.90;;;;;;5070440;28;20112;-63
2023/02/21 03:28:44;;;;;;;191.27;75.63;;;8.20;99.90;;;;;;5068969;28;20474;-62
2023/02/21 03:31:12;;;;;;;187.20;74.65;;;8.20;99.90;;;;;;5070289;28;20387;-62
2023/02/21 03:33:40;;;;;;;197.10;76.00;;;8.20;99.90;;;;;;5069075;28;20039;-62
2023/02/21 03:36:07;;;;;;;193.48;75.57;;;8.30;99.90;;;;;;5069930;28;20028;-62
2023/02/21 03:38:33;;;;;;;196.80;76.25;;;8.20;99.90;;;;;;5070155;28;20040;-62
2023/02/21 03:40:58;;;;;;;201.27;75.90;;;8.20;99.90;;;;;;5069957;28;20036;-63
2023/02/21 03:43:24;;;;;;;208.30;76.32;;;8.20;99.90;;;;;;5069634;28;20033;-62
2023/02/21 03:45:49;;;;;;;206.00;75.28;;;8.20;99.90;;;;;;5069798;28;20063;-62
2023/02/21 03:48:15;;;;;;;204.90;74.68;;;8.20;99.90;;;;;;5069966;28;20096;-62
2023/02/21 03:50:40;;;;;;;221.20;78.30;;;8.20;99.90;;;;;;5069652;28;20028;-62
2023/02/21 03:53:06;;;;;;;215.30;75.93;;;8.20;99.90;;;;;;5069858;28;20100;-62
2023/02/21 03:55:32;;;;;;;219.00;77.55;;;8.20;99.90;;;;;;5069713;28;20063;-62
2023/02/21 03:57:58;;;;;;;215.68;77.70;;;8.20;99.90;;;;;;5069681;28;20029;-62
2023/02/21 04:00:23;;;;;;;220.55;78.88;;;8.20;99.90;;;;;;5069625;28;20039;-63
2023/02/21 04:02:49;;;;;;;217.70;79.53;;;8.20;99.90;;;;;;5069154;28;20049;-62
2023/02/21 04:05:15;;;;;;;214.57;75.40;;;8.20;99.90;;;;;;5069434;28;20391;-62
2023/02/21 04:07:40;;;;;;;222.50;78.75;;;8.10;99.90;;;;;;5069523;28;20454;-63
2023/02/21 04:10:06;;;;;;;224.68;79.50;;;8.10;99.90;;;;;;5069202;28;20032;-63
2023/02/21 04:12:31;;;;;;;226.23;77.25;;;8.10;99.90;;;;;;5069397;28;20386;-62
2023/02/21 04:14:57;;;;;;;238.30;83.38;;;8.10;99.90;;;;;;5060797;28;20122;-62
2023/02/21 04:17:23;;;;;;;241.82;79.55;;;8.10;99.90;;;;;;5055965;28;20102;-63
2023/02/21 04:19:49;;;;;;;238.02;80.65;;;8.10;99.90;;;;;;5055884;28;20538;-62
2023/02/21 04:22:15;;;;;;;232.20;81.32;;;8.10;99.90;;;;;;5055789;28;20091;-63
2023/02/21 04:24:41;;;;;;;229.85;84.78;;;8.10;99.90;;;;;;5055883;28;20052;-63
2023/02/21 04:27:06;;;;;;;241.13;82.70;;;8.10;99.90;;;;;;5055681;28;20108;-62
2023/02/21 04:29:32;;;;;;;239.10;82.75;;;8.10;99.90;;;;;;5055665;28;20571;-62
2023/02/21 04:31:58;;;;;;;233.15;80.40;;;8.10;99.90;;;;;;5055518;28;20127;-63
2023/02/21 04:34:23;;;;;;;242.90;79.38;;;8.10;99.90;;;;;;5055631;28;20060;-63
2023/02/21 04:36:49;;;;;;;229.13;82.45;;;8.10;99.90;;;;;;5055792;28;20072;-63
2023/02/21 04:39:14;;;;;;;245.57;82.53;;;8.20;99.90;;;;;;5055738;28;20036;-63
2023/02/21 04:41:40;;;;;;;251.25;83.75;;;8.10;99.90;;;;;;5055579;28;20037;-63
2023/02/21 04:44:06;;;;;;;237.25;79.85;;;8.10;99.90;;;;;;5055325;28;20033;-63
2023/02/21 04:46:31;;;;;;;238.80;82.53;;;8.10;99.90;;;;;;5055128;28;20025;-63
2023/02/21 04:48:57;;;;;;;241.70;82.45;;;8.10;99.90;;;;;;5055558;28;20032;-63
2023/02/21 04:51:25;;;;;;;240.60;79.20;;;8.20;99.90;;;;;;5055321;28;20029;-63
2023/02/21 04:53:51;;;;;;;254.07;84.05;;;8.10;99.90;;;;;;5054039;28;20040;-63
2023/02/21 04:56:19;;;;;;;249.52;83.38;;;8.10;99.90;;;;;;5055133;28;20116;-63
2023/02/21 04:58:45;;;;;;;243.43;83.13;;;8.10;99.90;;;;;;5054253;28;20550;-63
2023/02/21 05:01:11;;;;;;;238.77;81.68;;;8.10;99.90;;;;;;5054128;28;20116;-62
2023/02/21 05:03:37;;;;;;;237.73;77.55;;;8.10;99.90;;;;;;5053618;28;20137;-63
2023/02/21 05:06:03;;;;;;;241.38;81.35;;;8.10;99.90;;;;;;5054966;28;20079;-63
2023/02/21 05:08:28;;;;;;;236.25;82.22;;;8.10;99.90;;;;;;5054957;28;20036;-63
2023/02/21 05:10:54;;;;;;;241.60;80.45;;;8.10;99.90;;;;;;5054941;28;20025;-63
2023/02/21 05:13:21;;;;;;;227.80;79.78;;;8.10;99.90;;;;;;5054868;28;20029;-63
2023/02/21 05:15:47;;;;;;;231.38;82.40;;;8.10;99.90;;;;;;5053733;28;20035;-63
2023/02/21 05:18:13;;;;;;;232.23;82.90;;;8.10;99.90;;;;;;5053868;28;20029;-63
2023/02/21 05:20:38;;;;;;;228.40;79.95;;;8.10;99.90;;;;;;5054978;28;20132;-63
2023/02/21 05:23:04;;;;;;;224.27;76.22;;;8.10;99.90;;;;;;5054870;28;20092;-63
2023/02/21 05:25:29;;;;;;;234.00;81.43;;;8.10;99.90;;;;;;5054347;28;20049;-63
2023/02/21 05:27:55;;;;;;;230.00;78.43;;;8.10;99.90;;;;;;5054241;28;20387;-63
2023/02/21 05:30:23;;;;;;;228.38;75.63;;;8.10;99.90;;;;;;5054367;28;20021;-63
2023/02/21 05:32:49;;;;;;;225.15;78.38;;;8.00;99.90;;;;;;5053257;28;20029;-63
2023/02/21 05:35:15;;;;;;;228.18;76.00;;;8.10;99.90;;;;;;5054537;28;20127;-63
2023/02/21 05:37:41;;;;;;;228.48;77.03;;;8.10;99.90;;;;;;5054521;28;20510;-62
2023/02/21 05:40:08;;;;;;;221.43;77.75;;;8.10;99.90;;;;;;5054265;28;20075;-62
2023/02/21 05:42:34;;;;;;;233.10;78.93;;;8.00;99.90;;;;;;5054238;28;20040;-63
2023/02/21 05:44:59;;;;;;;229.18;79.38;;;8.00;99.90;;;;;;5054481;28;20378;-62
2023/02/21 05:47:25;;;;;;;220.68;76.32;;;8.10;99.90;;;;;;5054233;28;20025;-63
2023/02/21 05:49:50;;;;;;;225.23;76.28;;;8.00;99.90;;;;;;5054188;28;20111;-63
2023/02/21 05:52:16;;;;;;;219.68;78.97;;;8.00;99.90;;;;;;5054209;28;20025;-63
2023/02/21 05:54:42;;;;;;;220.15;76.22;;;8.00;99.90;;;;;;5053009;28;20029;-62
2023/02/21 05:57:08;;;;;;;227.07;78.95;;;8.00;99.90;;;;;;5054187;28;20070;-62
2023/02/21 05:59:33;;;;;;;227.48;77.78;;;8.00;99.90;;;;;;5053801;28;20418;-63
2023/02/21 06:01:59;;;;;;;220.98;75.68;;;8.00;99.90;;;;;;5053779;28;20123;-63
2023/02/21 06:04:25;;;;;;;235.02;78.82;;;8.00;99.90;;;;;;5053671;28;20112;-63
2023/02/21 06:06:50;;;;;;;239.88;82.00;;;8.00;99.90;;;;;;5054056;28;20108;-63
2023/02/21 06:09:17;;;;;;;235.75;81.10;;;8.00;99.90;;;;;;5053877;28;20024;-63
2023/02/21 06:11:44;;;;;;;221.13;74.68;;;8.00;99.90;;;;;;5053863;28;20434;-63
2023/02/21 06:14:17;;;;;;;225.27;74.80;;;8.00;99.90;;;;;;5052763;28;20025;-63
2023/02/21 06:16:44;;;;;;;223.95;76.55;;;7.90;99.90;;;;;;5052969;28;20033;-63
2023/02/21 06:19:11;;;;;;;225.85;76.03;;;7.90;99.90;;;;;;5053475;28;20035;-63
2023/02/21 06:21:39;;;;;;;237.10;78.05;;;7.90;99.90;;;;;;5052414;28;20078;-63
2023/02/21 06:24:05;;;;;;;227.25;78.25;;;7.90;99.90;;;;;;5053381;28;20021;-63
2023/02/21 06:26:30;;;;;;;221.35;76.40;;;7.90;99.90;;;;;;5053529;28;20021;-63
2023/02/21 06:28:56;;;;;;;238.00;75.43;;;7.90;99.90;;;;;;5053539;28;20075;-62
2023/02/21 06:31:21;;;;;;;222.50;72.60;;;7.90;99.90;;;;;;5053394;28;20025;-63
2023/02/21 06:33:48;;;;;;;231.57;76.90;;;7.90;99.90;;;;;;5053601;28;20063;-62
2023/02/21 06:36:18;;;;;;;225.82;71.18;;;7.90;99.90;;;;;;5052537;28;20037;-63
2023/02/21 06:38:45;;;;;;;215.60;73.32;;;7.90;99.90;;;;;;5051852;28;20075;-63
2023/02/21 06:41:15;;;;;;;209.18;70.72;;;7.90;99.90;;;;;;5053357;28;20036;-62
2023/02/21 06:43:41;;;;;;;215.27;72.10;;;7.80;99.90;;;;;;5053398;28;20021;-63
2023/02/21 06:46:06;;;;;;;210.57;70.30;;;7.90;99.90;;;;;;5052194;28;20024;-63
2023/02/21 06:48:32;;;;;;;203.00;68.30;;;7.80;99.90;;;;;;5053187;28;20029;-63
2023/02/21 06:50:57;;;;;;;199.18;69.03;;;7.80;99.90;;;;;;5053209;28;20040;-63
2023/02/21 06:53:23;;;;;;;214.75;69.88;;;7.90;99.90;;;;;;5053207;28;20094;-63
2023/02/21 06:55:48;;;;;;;211.45;69.32;;;7.80;99.90;;;;;;5052924;28;20396;-63
2023/02/21 06:58:14;;;;;;;201.75;68.93;;;7.80;99.90;;;;;;5053164;28;20487;-63
2023/02/21 07:00:40;;;;;;;207.60;67.65;;;7.80;99.90;;;;;;5053001;28;20103;-63
2023/02/21 07:03:05;;;;;;;203.60;69.47;;;7.80;99.90;;;;;;5052821;28;20091;-63
2023/02/21 07:05:33;;;;;;;202.50;66.40;;;7.90;99.90;;;;;;5052897;28;20021;-63
2023/02/21 07:08:01;;;;;;;210.55;68.25;;;7.90;99.90;;;;;;5052819;28;20475;-63
2023/02/21 07:10:27;;;;;;;204.73;67.22;;;7.80;99.90;;;;;;5052880;28;20060;-63
2023/02/21 07:12:53;;;;;;;205.57;69.18;;;7.80;99.90;;;;;;5053005;28;20029;-63
2023/02/21 07:15:18;;;;;;;213.07;65.72;;;7.80;99.90;;;;;;5052666;28;20021;-63
2023/02/21 07:17:44;;;;;;;215.93;69.57;;;7.80;99.90;;;;;;5052872;28;20025;-63
2023/02/21 07:20:10;;;;;;;220.07;69.72;;;7.80;99.90;;;;;;5051723;28;20033;-62
2023/02/21 07:22:35;;;;;;;223.30;69.75;;;7.90;99.90;;;;;;5052657;28;20025;-63
2023/02/21 07:25:01;;;;;;;229.90;72.80;;;7.80;99.90;;;;;;5052719;28;20029;-63
2023/02/21 07:27:27;;;;;;;210.88;69.28;;;7.80;99.90;;;;;;5051435;28;20386;-63
2023/02/21 07:29:52;;;;;;;232.10;70.50;;;7.80;99.90;;;;;;5052963;28;20029;-63
2023/02/21 07:32:18;;;;;;;235.65;74.72;;;7.90;99.90;;;;;;5052832;28;20453;-62
2023/02/21 07:34:44;;;;;;;223.43;69.20;;;7.90;99.90;;;;;;5052774;28;20060;-63
2023/02/21 07:37:10;;;;;;;225.82;70.03;;;7.90;99.90;;;;;;5052843;28;20390;-62
2023/02/21 07:39:36;;;;;;;233.60;70.88;;;7.90;99.90;;;;;;5052463;28;20017;-63
2023/02/21 07:42:03;;;;;;;228.90;70.10;;;7.90;99.90;;;;;;5052797;28;20040;-62
2023/02/21 07:44:28;;;;;;;255.60;72.72;;;7.80;99.90;;;;;;5052502;28;20115;-63
2023/02/21 07:46:56;;;;;;;226.27;69.25;;;7.80;99.90;;;;;;5052339;28;20039;-63
2023/02/21 07:49:21;;;;;;;243.05;70.80;;;7.80;99.90;;;;;;5052982;28;20111;-62
2023/02/21 07:51:47;;;;;;;239.23;69.47;;;7.80;99.90;;;;;;5056428;28;20033;-63
2023/02/21 07:54:12;;;;;;;226.52;67.70;;;7.80;99.90;;;;;;5056517;28;20032;-62
2023/02/21 07:56:47;;;;;;;237.02;68.35;;;7.90;99.90;;;;;;5056251;28;20033;-63
2023/02/21 07:59:13;;;;;;;235.27;72.15;;;7.90;99.90;;;;;;5055123;28;20032;-63
2023/02/21 08:01:39;;;;;;;243.95;68.70;;;7.80;99.90;;;;;;5054972;28;20517;-63
2023/02/21 08:04:04;;;;;;;256.85;72.75;;;7.90;99.90;;;;;;5055796;28;20048;-62
2023/02/21 08:06:32;;;;;;;258.42;74.55;;;7.80;99.90;;;;;;5053927;28;20036;-63
2023/02/21 08:08:57;;;;;;;240.60;72.03;;;7.90;99.90;;;;;;5041585;28;20533;-63
2023/02/21 08:11:23;;;;;;;253.25;71.43;;;7.80;99.90;;;;;;5036095;28;20018;-63
2023/02/21 08:13:48;;;;;;;249.43;70.35;;;7.90;99.90;;;;;;5045838;28;20036;-63
2023/02/21 08:16:14;;;;;;;265.85;72.13;;;7.80;99.90;;;;;;5036197;28;20037;-63
2023/02/21 08:18:41;;;;;;;261.92;75.78;;;7.90;99.90;;;;;;5038282;28;20025;-62
2023/02/21 08:21:09;;;;;;;270.67;74.85;;;7.90;99.90;;;;;;5036217;28;20031;-63
2023/02/21 08:23:34;;;;;;;237.32;70.07;;;7.90;99.90;;;;;;5034593;28;20521;-63
2023/02/21 08:26:03;;;;;;;249.10;71.63;;;8.00;99.90;;;;;;5042543;28;20028;-63
2023/02/21 08:28:29;;;;;;;260.42;74.40;;;8.00;99.90;;;;;;5055719;28;20037;-63
2023/02/21 08:30:54;;;;;;;252.35;73.95;;;7.90;99.90;;;;;;5054443;28;20017;-63
2023/02/21 08:33:20;;;;;;;242.73;72.88;;;7.90;99.90;;;;;;5054416;28;20044;-63
2023/02/21 08:35:45;;;;;;;241.52;70.28;;;7.90;99.90;;;;;;5054586;28;20347;-63
2023/02/21 08:38:11;;;;;;;256.23;72.13;;;8.00;99.90;;;;;;5041868;28;20037;-63
2023/02/21 08:40:37;;;;;;;253.45;76.13;;;8.00;99.90;;;;;;5038170;28;20514;-62
2023/02/21 08:43:03;;;;;;;250.73;71.25;;;8.00;99.90;;;;;;5035362;28;20033;-63
2023/02/21 08:45:29;;;;;;;236.80;72.72;;;8.00;99.90;;;;;;5045282;28;20143;-62
2023/02/21 08:47:55;;;;;;;249.57;71.75;;;8.00;99.90;;;;;;5055361;28;20483;-62
2023/02/21 08:50:22;;;;;;;249.48;72.43;;;8.00;99.90;;;;;;5054210;28;20036;-62
2023/02/21 08:52:50;;;;;;;250.68;71.88;;;8.00;99.90;;;;;;5054998;28;20447;-63
2023/02/21 08:55:16;;;;;;;246.90;73.07;;;8.10;99.90;;;;;;5054339;28;20036;-63
2023/02/21 08:57:42;;;;;;;243.30;74.25;;;8.10;99.90;;;;;;5053914;28;20031;-63
2023/02/21 09:00:09;;;;;;;248.57;73.70;;;8.10;99.90;;;;;;5052829;28;20033;-62
2023/02/21 09:02:38;;;;;;;234.57;72.28;;;8.10;99.90;;;;;;5044114;28;20099;-63
2023/02/21 09:05:06;;;;;;;244.35;74.03;;;8.10;99.90;;;;;;5036419;28;20036;-62
2023/02/21 09:07:32;;;;;;;237.50;70.95;;;8.10;99.90;;;;;;5035660;28;20529;-62
2023/02/21 09:09:58;;;;;;;256.05;78.55;;;8.10;99.90;;;;;;5055020;28;20025;-62
2023/02/21 09:12:23;;;;;;;245.98;77.28;;;8.10;99.90;;;;;;5054974;28;20387;-62
2023/02/21 09:14:49;;;;;;;259.00;77.75;;;8.10;99.90;;;;;;5053827;28;20032;-62
2023/02/21 09:17:14;;;;;;;265.80;78.50;;;8.10;99.90;;;;;;5054894;28;20037;-62
2023/02/21 09:19:40;;;;;;;247.55;75.55;;;8.10;99.90;;;;;;5053512;28;20047;-63
2023/02/21 09:22:07;;;;;;;246.63;76.30;;;8.10;99.90;;;;;;5038575;28;20024;-62
2023/02/21 09:24:33;;;;;;;252.57;76.53;;;8.10;99.90;;;;;;5034536;28;20040;-62
2023/02/21 09:27:01;;;;;;;249.85;76.45;;;8.10;99.90;;;;;;5034449;28;20100;-62
2023/02/21 09:29:28;;;;;;;242.77;76.93;;;8.10;99.90;;;;;;5043428;28;20025;-62
2023/02/21 09:31:54;;;;;;;246.02;74.90;;;8.10;99.90;;;;;;5053486;28;20106;-64
2023/02/21 09:34:21;;;;;;;261.38;78.55;;;8.10;99.90;;;;;;5051761;28;20083;-62
2023/02/21 09:36:47;;;;;;;250.68;77.65;;;8.10;99.90;;;;;;5053022;28;20032;-63
2023/02/21 09:39:13;;;;;;;236.30;72.05;;;8.10;99.90;;;;;;5036494;28;20103;-62
2023/02/21 09:41:42;;;;;;;234.30;71.90;;;8.10;99.90;;;;;;5072602;28;20060;-62
2023/02/21 09:44:14;;;;;;;237.60;74.25;;;8.10;99.90;;;;;;5055370;28;20086;-63
2023/02/21 09:46:43;;;;;;;246.60;75.05;;;8.10;99.90;;;;;;5054126;28;20024;-62
2023/02/21 09:49:17;;;;;;;252.18;76.10;;;8.10;99.90;;;;;;5052855;28;20047;-63
2023/02/21 09:51:43;;;;;;;259.23;76.45;;;8.10;99.90;;;;;;5053565;28;20021;-63
2023/02/21 09:54:31;;;;;;;251.98;77.45;;;8.20;99.90;;;;;;5053789;28;20094;-63
2023/02/21 09:57:00;;;;;;;255.93;77.03;;;8.20;99.90;;;;;;5054061;28;20053;-62
2023/02/21 09:59:25;;;;;;;245.13;73.28;;;8.10;99.90;;;;;;5053221;28;20028;-62
2023/02/21 10:02:14;;;;;;;242.32;73.95;;;8.10;99.90;;;;;;5054055;28;20025;-63
2023/02/21 10:05:10;;;;;;;233.57;73.30;;;8.10;99.90;;;;;;5053716;28;20037;-63
2023/02/21 10:07:48;;;;;;;247.30;71.57;;;8.10;99.90;;;;;;5053691;28;20530;-62
2023/02/21 10:10:52;;;;;;;254.35;73.80;;;8.20;99.90;;;;;;5053999;28;20029;-63
2023/02/21 10:16:07;;;;;;;249.35;75.55;;;8.10;99.90;;;;;;5091180;28;20432;-63
2023/02/21 10:18:58;;;;;;;244.48;75.10;;;8.20;99.90;;;;;;5090497;28;20036;-63
2023/02/21 10:21:30;;;;;;;234.35;68.40;;;8.20;99.90;;;;;;5090359;28;20059;-63
2023/02/21 10:23:59;;;;;;;228.55;69.70;;;8.20;99.90;;;;;;5090226;28;20020;-63
2023/02/21 10:26:27;;;;;;;230.23;69.57;;;8.30;99.90;;;;;;5090227;28;20016;-62
2023/02/21 10:28:54;;;;;;;222.10;67.03;;;8.20;99.90;;;;;;5076831;28;20056;-63
2023/02/21 10:31:39;;;;;;;233.95;70.82;;;8.20;99.90;;;;;;5090379;28;20440;-63
2023/02/21 10:34:14;;;;;;;224.57;66.90;;;8.30;99.90;;;;;;5089362;28;20454;-62
2023/02/21 10:36:40;;;;;;;213.73;63.83;;;8.30;99.90;;;;;;5089044;28;20478;-62
2023/02/21 10:39:15;;;;;;;208.98;63.90;;;8.30;99.90;;;;;;5090188;28;20028;-63
2023/02/21 10:41:41;;;;;;;203.82;62.50;;;8.30;99.90;;;;;;5088986;28;20020;-62
2023/02/21 10:44:15;;;;;;;204.32;61.83;;;8.30;99.90;;;;;;5089194;28;20390;-62
2023/02/21 10:46:48;;;;;;;205.50;60.25;;;8.30;99.90;;;;;;5090003;28;20020;-63
2023/02/21 10:49:39;;;;;;;195.70;60.92;;;8.30;99.90;;;;;;5089086;28;20028;-62
2023/02/21 10:52:10;;;;;;;178.30;56.20;;;8.30;99.90;;;;;;5085340;28;20105;-62
2023/02/21 10:54:37;;;;;;;181.48;59.03;;;8.30;99.90;;;;;;5051642;28;20044;-63
2023/02/21 10:57:06;;;;;;;175.02;57.13;;;8.30;99.90;;;;;;5049804;28;20021;-63
2023/02/21 10:59:35;;;;;;;166.88;53.63;;;8.30;99.90;;;;;;5069532;28;20060;-63
2023/02/21 11:02:02;;;;;;;170.23;53.00;;;8.30;99.90;;;;;;5067936;28;20104;-63
2023/02/21 11:04:33;;;;;;;168.38;53.90;;;8.30;99.90;;;;;;5069574;28;20047;-62
2023/02/21 11:07:14;;;;;;;160.88;51.78;;;8.30;99.90;;;;;;5069404;28;20078;-63
2023/02/21 11:09:44;;;;;;;174.55;56.55;;;8.30;99.90;;;;;;5069401;28;20068;-62
2023/02/21 11:12:29;;;;;;;177.60;57.20;;;8.30;99.90;;;;;;5067448;28;20049;-63
2023/02/21 11:15:03;;;;;;;181.65;56.63;;;8.30;99.90;;;;;;5068415;28;20045;-63
2023/02/21 11:17:31;;;;;;;180.93;56.78;;;8.30;99.90;;;;;;5079120;28;20024;-63
2023/02/21 11:20:06;;;;;;;179.38;57.08;;;8.30;99.90;;;;;;5086687;28;20066;-63
2023/02/21 11:31:05;;;;;;;161.50;52.30;;;8.40;99.90;;;;;;5090537;28;20794;-62
2023/02/21 11:33:35;;;;;;;147.52;49.85;;;8.40;99.90;;;;;;5090540;28;20035;-62
2023/02/21 11:36:25;;;;;;;150.40;49.08;;;8.50;99.90;;;;;;5090811;28;20107;-62
2023/02/21 11:39:30;;;;;;;150.32;47.00;;;8.50;99.90;;;;;;5090559;28;20390;-62
2023/02/21 11:41:58;;;;;;;135.63;46.28;;;8.40;99.90;;;;;;5085963;28;20067;-62
2023/02/21 11:44:40;;;;;;;132.25;46.30;;;8.40;99.90;;;;;;5077115;28;20024;-62
2023/02/21 11:47:27;;;;;;;148.40;49.08;;;8.40;99.90;;;;;;5090418;28;20135;-62
2023/02/21 11:50:17;;;;;;;135.02;45.15;;;8.40;99.90;;;;;;5089149;28;20036;-62
2023/02/21 11:52:54;;;;;;;135.93;46.17;;;8.40;99.90;;;;;;5087730;28;20127;-63
2023/02/21 11:55:22;;;;;;;131.90;45.38;;;8.40;99.90;;;;;;5090205;28;20390;-62
2023/02/21 12:01:00;;;;;;;118.88;43.33;;;8.40;99.90;;;;;;5110967;27;20412;-62
2023/02/21 12:03:42;;;;;;;113.95;41.00;;;8.40;99.90;;;;;;5110068;28;20047;-62
2023/02/21 12:09:07;;;;;;;111.90;39.70;;;8.40;99.90;;;;;;5111010;27;20108;-62
2023/02/21 12:12:00;;;;;;;104.38;38.30;;;8.40;99.90;;;;;;5110115;28;20560;-62
2023/02/21 12:14:39;;;;;;;;;;;8.40;99.90;;;;;;5111316;28;20031;-62
2023/02/21 12:17:25;;;;;;;108.45;38.40;;;8.40;99.90;;;;;;5109654;28;19908;-63
2023/02/21 12:20:06;;;;;;;107.50;40.67;;;8.40;99.90;;;;;;5099882;28;20033;-63
2023/02/21 12:22:57;;;;;;;111.13;41.38;;;8.40;99.90;;;;;;5102216;28;20032;-62
2023/02/21 12:26:03;;;;;;;110.60;41.88;;;8.40;99.90;;;;;;5108587;28;20059;-63
2023/02/21 12:28:54;;;;;;;116.18;42.85;;;8.40;99.90;;;;;;5105729;28;20401;-63
2023/02/21 12:31:35;;;;;;;115.88;40.63;;;8.40;99.90;;;;;;5102183;28;20099;-63
2023/02/21 12:34:40;;;;;;;114.85;40.05;;;8.40;99.90;;;;;;5100068;28;20056;-64
2023/02/21 12:37:45;;;;;;;108.25;40.80;;;8.40;99.90;;;;;;5097224;28;20614;-63
2023/02/21 12:40:19;;;;;;;107.28;40.03;;;8.50;99.90;;;;;;5101063;28;20027;-63
2023/02/21 12:43:24;;;;;;;105.95;39.42;;;8.50;99.90;;;;;;5092558;28;20535;-63
2023/02/21 12:46:18;;;;;;;96.20;38.88;;;8.50;99.90;;;;;;5104474;28;20020;-62
2023/02/21 12:48:50;;;;;;;96.28;37.28;;;8.40;99.90;;;;;;5103576;28;20518;-63
2023/02/21 12:51:19;;;;;;;93.20;36.05;;;8.50;99.90;;;;;;5103873;28;20455;-62
2023/02/21 12:54:24;;;;;;;94.50;37.42;;;8.50;99.90;;;;;;5113936;28;20110;-63
2023/02/21 12:56:59;;;;;;;108.78;40.00;;;8.50;99.90;;;;;;5102367;28;20036;-62
2023/02/21 13:02:44;;;;;;;94.18;37.45;;;8.50;99.90;;;;;;5073123;28;20410;-64
2023/02/21 13:05:16;;;;;;;102.00;40.10;;;8.50;99.90;;;;;;5054184;28;20032;-64
2023/02/21 13:07:53;;;;;;;101.00;40.03;;;8.50;99.90;;;;;;5055260;28;20033;-64
2023/02/21 13:10:23;;;;;;;97.18;38.72;;;8.50;99.90;;;;;;5068665;28;20559;-64
2023/02/21 13:13:10;;;;;;;103.55;40.40;;;8.50;99.90;;;;;;5060095;28;20040;-64
2023/02/21 13:15:39;;;;;;;102.80;38.25;;;8.50;99.90;;;;;;5055557;28;20487;-64
2023/02/21 13:18:16;;;;;;;91.50;37.25;;;8.60;99.90;;;;;;5065120;28;20082;-64
2023/02/21 13:20:47;;;;;;;89.38;37.13;;;8.60;99.90;;;;;;5052902;28;20039;-64
2023/02/21 13:23:49;;;;;;;90.78;37.75;;;8.60;99.90;;;;;;5063732;28;20028;-64
2023/02/21 13:26:32;;;;;;;90.22;37.90;;;8.60;99.90;;;;;;5053025;28;20067;-64
2023/02/21 13:28:58;;;;;;;92.93;39.37;;;8.70;99.90;;;;;;5049108;28;20025;-64
2023/02/21 13:31:26;;;;;;;86.25;38.38;;;8.70;99.90;;;;;;5049041;28;20033;-64
2023/02/21 13:33:58;;;;;;;93.75;37.92;;;8.80;99.90;;;;;;5067953;28;20052;-64
2023/02/21 13:36:42;;;;;;;83.35;37.92;;;8.80;99.90;;;;;;5062156;28;20080;-64
2023/02/21 13:39:14;;;;;;;83.82;37.38;;;8.70;99.90;;;;;;5034872;28;20030;-64
2023/02/21 13:41:50;;;;;;;77.90;35.05;;;8.80;99.90;;;;;;5049128;28;20035;-64
2023/02/21 13:44:40;;;;;;;77.70;35.47;;;8.90;99.90;;;;;;5061870;28;20419;-64
2023/02/21 13:47:11;;;;;;;76.03;34.45;;;8.90;99.90;;;;;;5051197;28;20057;-63
2023/02/21 13:49:47;;;;;;;81.45;36.35;;;8.90;99.90;;;;;;5049021;28;20545;-61
2023/02/21 13:52:28;;;;;;;70.70;34.10;;;8.80;99.90;;;;;;5054057;28;20139;-62
2023/02/21 14:03:16;;;;;;;70.90;34.72;;;9.00;99.90;;;;;;5109540;27;20342;-63
2023/02/21 14:08:41;;;;;;;68.72;33.47;;;9.00;99.90;;;;;;5091919;28;20338;-62
2023/02/21 14:13:56;;;;;;;67.30;34.60;;;9.00;99.90;;;;;;5088735;28;20336;-63
2023/02/21 14:16:43;;;;;;;68.05;34.58;;;9.10;99.90;;;;;;5066229;28;20061;-65
2023/02/21 14:19:18;;;;;;;64.13;32.30;;;9.10;99.90;;;;;;5067025;28;20033;-63
2023/02/21 14:21:49;;;;;;;66.97;33.17;;;9.10;99.90;;;;;;5061056;28;20029;-63
2023/02/21 14:24:21;;;;;;;68.72;32.22;;;9.10;99.90;;;;;;5052073;28;20433;-63
2023/02/21 14:26:56;;;;;;;64.60;32.78;;;9.10;99.90;;;;;;5060793;28;20036;-63
2023/02/21 14:29:43;;;;;;;67.13;34.22;;;9.20;99.90;;;;;;5059641;28;20501;-63
2023/02/21 14:32:14;;;;;;;67.25;33.42;;;9.20;99.90;;;;;;5062606;28;20032;-63
2023/02/21 14:34:53;;;;;;;66.25;33.15;;;9.30;99.90;;;;;;5068296;28;20493;-63
2023/02/21 14:37:37;;;;;;;66.35;33.00;;;9.30;99.90;;;;;;5052983;28;20498;-63
2023/02/21 14:40:26;;;;;;;68.05;33.97;;;9.30;99.90;;;;;;5051823;28;20090;-63
2023/02/21 14:43:21;;;;;;;76.07;37.22;;;9.40;99.90;;;;;;5055439;28;20418;-63
2023/02/21 14:46:26;;;;;;;80.85;37.95;;;9.30;99.90;;;;;;5068958;28;20035;-63
2023/02/21 14:49:18;;;;;;;82.43;39.17;;;9.30;99.90;;;;;;5064472;28;20394;-63
2023/02/21 14:52:24;;;;;;;85.55;41.28;;;9.30;99.90;;;;;;5059534;28;20029;-63
2023/02/21 14:55:29;;;;;;;84.85;38.72;;;9.30;99.90;;;;;;5055396;28;20025;-63
2023/02/21 14:58:25;;;;;;;79.05;38.75;;;9.30;99.90;;;;;;5066520;28;20433;-63
2023/02/21 15:01:09;;;;;;;78.35;38.10;;;9.30;99.90;;;;;;5062362;28;20029;-63
2023/02/21 15:04:14;;;;;;;84.10;40.38;;;9.40;99.90;;;;;;5061358;28;20025;-63
2023/02/21 15:06:45;;;;;;;83.70;39.10;;;9.30;99.90;;;;;;5061523;28;20036;-63
2023/02/21 15:09:16;;;;;;;87.88;42.70;;;9.40;99.90;;;;;;5058952;28;20035;-63
2023/02/21 15:11:43;;;;;;;88.50;42.72;;;9.30;99.90;;;;;;5065827;28;20955;-63
2023/02/21 15:14:21;;;;;;;88.53;42.70;;;9.30;99.90;;;;;;5062792;28;20379;-63
2023/02/21 15:16:56;;;;;;;87.80;42.50;;;9.30;99.90;;;;;;5063412;28;20031;-63
2023/02/21 15:19:27;;;;;;;86.47;42.00;;;9.40;99.90;;;;;;5062473;28;20020;-63
2023/02/21 15:22:15;;;;;;;90.13;42.67;;;9.40;99.90;;;;;;5069053;28;20044;-63
2023/02/21 15:24:56;;;;;;;87.72;41.95;;;9.40;99.90;;;;;;5047270;28;20034;-63
2023/02/21 15:27:21;;;;;;;90.20;42.63;;;9.40;99.90;;;;;;5046059;28;20033;-63
2023/02/21 15:30:21;;;;;;;89.03;42.65;;;9.40;99.90;;;;;;5040770;28;20029;-63
2023/02/21 15:33:04;;;;;;;86.07;42.53;;;9.50;99.90;;;;;;5054124;28;20470;-63
2023/02/21 15:35:37;;;;;;;82.88;41.13;;;9.50;99.90;;;;;;5040745;28;20028;-63
2023/02/21 15:38:16;;;;;;;86.10;40.70;;;9.50;99.90;;;;;;5049626;28;20025;-63
2023/02/21 15:40:42;;;;;;;83.07;40.75;;;9.50;99.90;;;;;;5042062;28;20025;-63
2023/02/21 15:43:30;;;;;;;80.72;41.25;;;9.50;99.90;;;;;;5048768;28;20463;-63
2023/02/21 15:45:58;;;;;;;76.15;39.90;;;9.50;99.90;;;;;;5040522;28;20032;-63
2023/02/21 15:48:24;;;;;;;84.05;41.28;;;9.50;99.90;;;;;;5044193;28;20075;-63
2023/02/21 15:50:49;;;;;;;78.35;41.45;;;9.50;99.90;;;;;;5045173;28;20041;-63
2023/02/21 15:53:19;;;;;;;80.88;41.08;;;9.50;99.90;;;;;;5036111;28;20499;-63